METAR Data
IDs: Format: Raw Decoded Include TAF

Data at: 0553 UTC 26 May 2022

METAR for:KHSE (Hatteras/Mitchell Fl, NC, US)
Text:KHSE 260451Z AUTO 00000KT 10SM OVC006 21/19 A3018 RMK AO2 SLP221 T02060189 402330194
Temperature: 20.6°C ( 69°F)
Dewpoint: 18.9°C ( 66°F) [RH = 90%]
Pressure (altimeter):30.18 inches Hg (1022.1 mb) [Sea level pressure: 1022.1 mb]
Winds:calm
Visibility:10 or more sm (16+ km)
Ceiling:600 feet AGL
Clouds: overcast cloud deck at 600 feet AGL
QC Flag:automated observation with no human augmentation
Text:KHSE 260351Z AUTO VRB03KT 10SM OVC007 20/18 A3019 RMK AO2 SLP224 T02000183
Temperature: 20.0°C ( 68°F)
Dewpoint: 18.3°C ( 65°F) [RH = 90%]
Pressure (altimeter):30.19 inches Hg (1022.4 mb) [Sea level pressure: 1022.4 mb]
Winds:variable direction winds at 3 MPH (3 knots; 1.5 m/s)
Visibility:10 or more sm (16+ km)
Ceiling:700 feet AGL
Clouds: overcast cloud deck at 700 feet AGL
QC Flag:automated observation with no human augmentation
Text:KHSE 260251Z AUTO 00000KT 10SM OVC008 20/19 A3020 RMK AO2 CIG 005V009 SLP225 T02000189 51005
Temperature: 20.0°C ( 68°F)
Dewpoint: 18.9°C ( 66°F) [RH = 93%]
Pressure (altimeter):30.20 inches Hg (1022.8 mb) [Sea level pressure: 1022.5 mb]
Winds:calm
Visibility:10 or more sm (16+ km)
Ceiling:800 feet AGL
Clouds: overcast cloud deck at 800 feet AGL
QC Flag:automated observation with no human augmentation
Text:KHSE 260151Z AUTO VRB04KT 9SM OVC005 20/18 A3020 RMK AO2 SLP225 T02000183
Temperature: 20.0°C ( 68°F)
Dewpoint: 18.3°C ( 65°F) [RH = 90%]
Pressure (altimeter):30.20 inches Hg (1022.8 mb) [Sea level pressure: 1022.5 mb]
Winds:variable direction winds at 5 MPH (4 knots; 2.1 m/s)
Visibility: 9 sm ( 14 km)
Ceiling:500 feet AGL
Clouds: overcast cloud deck at 500 feet AGL
QC Flag:automated observation with no human augmentation
Text:KHSE 260051Z AUTO 29006KT 10SM OVC007 20/18 A3018 RMK AO2 SLP220 T02000178
Temperature: 20.0°C ( 68°F)
Dewpoint: 17.8°C ( 64°F) [RH = 87%]
Pressure (altimeter):30.18 inches Hg (1022.1 mb) [Sea level pressure: 1022.0 mb]
Winds:from the WNW (290 degrees) at 7 MPH (6 knots; 3.1 m/s)
Visibility:10 or more sm (16+ km)
Ceiling:700 feet AGL
Clouds: overcast cloud deck at 700 feet AGL
QC Flag:automated observation with no human augmentation
Text:KHSE 252351Z AUTO 31006KT 10SM OVC007 20/18 A3018 RMK AO2 SLP219 T02000178 10233 20200 51004
Temperature: 20.0°C ( 68°F)
Dewpoint: 17.8°C ( 64°F) [RH = 87%]
Pressure (altimeter):30.18 inches Hg (1022.1 mb) [Sea level pressure: 1021.9 mb]
Winds:from the NW (310 degrees) at 7 MPH (6 knots; 3.1 m/s)
Visibility:10 or more sm (16+ km)
Ceiling:700 feet AGL
Clouds: overcast cloud deck at 700 feet AGL
QC Flag:automated observation with no human augmentation
Text:KHSE 252251Z AUTO VRB03KT 10SM OVC008 21/18 A3018 RMK AO2 SLP218 T02060178
Temperature: 20.6°C ( 69°F)
Dewpoint: 17.8°C ( 64°F) [RH = 84%]
Pressure (altimeter):30.18 inches Hg (1022.1 mb) [Sea level pressure: 1021.8 mb]
Winds:variable direction winds at 3 MPH (3 knots; 1.5 m/s)
Visibility:10 or more sm (16+ km)
Ceiling:800 feet AGL
Clouds: overcast cloud deck at 800 feet AGL
QC Flag:automated observation with no human augmentation
Text:KHSE 252151Z AUTO VRB05KT 10SM OVC009 21/18 A3017 RMK AO2 SLP217 T02060178
Temperature: 20.6°C ( 69°F)
Dewpoint: 17.8°C ( 64°F) [RH = 84%]
Pressure (altimeter):30.17 inches Hg (1021.8 mb) [Sea level pressure: 1021.7 mb]
Winds:variable direction winds at 6 MPH (5 knots; 2.6 m/s)
Visibility:10 or more sm (16+ km)
Ceiling:900 feet AGL
Clouds: overcast cloud deck at 900 feet AGL
QC Flag:automated observation with no human augmentation
Text:KHSE 252051Z AUTO VRB03KT 10SM OVC009 22/18 A3017 RMK AO2 SLP215 T02170183 58008
Temperature: 21.7°C ( 71°F)
Dewpoint: 18.3°C ( 65°F) [RH = 81%]
Pressure (altimeter):30.17 inches Hg (1021.8 mb) [Sea level pressure: 1021.5 mb]
Winds:variable direction winds at 3 MPH (3 knots; 1.5 m/s)
Visibility:10 or more sm (16+ km)
Ceiling:900 feet AGL
Clouds: overcast cloud deck at 900 feet AGL
QC Flag:automated observation with no human augmentation
Text:KHSE 252044Z AUTO VRB05KT 10SM OVC009 22/18 A3017 RMK AO2 T02170183
Temperature: 21.7°C ( 71°F)
Dewpoint: 18.3°C ( 65°F) [RH = 81%]
Pressure (altimeter):30.17 inches Hg (1021.8 mb)
Winds:variable direction winds at 6 MPH (5 knots; 2.6 m/s)
Visibility:10 or more sm (16+ km)
Ceiling:900 feet AGL
Clouds: overcast cloud deck at 900 feet AGL
QC Flag:automated observation with no human augmentation
Text:KHSE 251951Z AUTO 33006KT 10SM OVC010 22/18 A3017 RMK AO2 SLP217 T02220183
Temperature: 22.2°C ( 72°F)
Dewpoint: 18.3°C ( 65°F) [RH = 79%]
Pressure (altimeter):30.17 inches Hg (1021.8 mb) [Sea level pressure: 1021.7 mb]
Winds:from the NNW (330 degrees) at 7 MPH (6 knots; 3.1 m/s)
Visibility:10 or more sm (16+ km)
Ceiling:1000 feet AGL
Clouds: overcast cloud deck at 1000 feet AGL
QC Flag:automated observation with no human augmentation
Text:KHSE 251851Z AUTO 32007KT 300V010 10SM OVC011 22/18 A3019 RMK AO2 SLP223 T02220183
Temperature: 22.2°C ( 72°F)
Dewpoint: 18.3°C ( 65°F) [RH = 79%]
Pressure (altimeter):30.19 inches Hg (1022.4 mb) [Sea level pressure: 1022.3 mb]
Winds:from the NW (320 degrees) at 8 MPH (7 knots; 3.6 m/s)
Visibility:10 or more sm (16+ km)
Ceiling:1100 feet AGL
Clouds: overcast cloud deck at 1100 feet AGL
QC Flag:automated observation with no human augmentation
Text:KHSE 251833Z AUTO VRB05KT 10SM OVC011 23/19 A3019 RMK AO2 T02280189
Temperature: 22.8°C ( 73°F)
Dewpoint: 18.9°C ( 66°F) [RH = 79%]
Pressure (altimeter):30.19 inches Hg (1022.4 mb)
Winds:variable direction winds at 6 MPH (5 knots; 2.6 m/s)
Visibility:10 or more sm (16+ km)
Ceiling:1100 feet AGL
Clouds: overcast cloud deck at 1100 feet AGL
QC Flag:automated observation with no human augmentation
Text:KHSE 251751Z AUTO VRB04KT 10SM OVC009 23/19 A3019 RMK AO2 CIG 008V013 SLP223 T02280189 10228 20194 56004
Temperature: 22.8°C ( 73°F)
Dewpoint: 18.9°C ( 66°F) [RH = 79%]
Pressure (altimeter):30.19 inches Hg (1022.4 mb) [Sea level pressure: 1022.3 mb]
Winds:variable direction winds at 5 MPH (4 knots; 2.1 m/s)
Visibility:10 or more sm (16+ km)
Ceiling:900 feet AGL
Clouds: overcast cloud deck at 900 feet AGL
QC Flag:automated observation with no human augmentation
Text:KHSE 251741Z AUTO VRB04KT 10SM OVC009 22/18 A3019 RMK AO2 CIG 008V013 T02220183
Temperature: 22.2°C ( 72°F)
Dewpoint: 18.3°C ( 65°F) [RH = 79%]
Pressure (altimeter):30.19 inches Hg (1022.4 mb)
Winds:variable direction winds at 5 MPH (4 knots; 2.1 m/s)
Visibility:10 or more sm (16+ km)
Ceiling:900 feet AGL
Clouds: overcast cloud deck at 900 feet AGL
QC Flag:automated observation with no human augmentation
Text:KHSE 251731Z AUTO VRB05KT 10SM OVC010 22/18 A3020 RMK AO2 CIG 008V013 T02220183
Temperature: 22.2°C ( 72°F)
Dewpoint: 18.3°C ( 65°F) [RH = 79%]
Pressure (altimeter):30.20 inches Hg (1022.8 mb)
Winds:variable direction winds at 6 MPH (5 knots; 2.6 m/s)
Visibility:10 or more sm (16+ km)
Ceiling:1000 feet AGL
Clouds: overcast cloud deck at 1000 feet AGL
QC Flag:automated observation with no human augmentation
Text:KHSE 251651Z AUTO VRB06KT 10SM OVC008 22/18 A3020 RMK AO2 SLP225 T02170183
Temperature: 21.7°C ( 71°F)
Dewpoint: 18.3°C ( 65°F) [RH = 81%]
Pressure (altimeter):30.20 inches Hg (1022.8 mb) [Sea level pressure: 1022.5 mb]
Winds:variable direction winds at 7 MPH (6 knots; 3.1 m/s)
Visibility:10 or more sm (16+ km)
Ceiling:800 feet AGL
Clouds: overcast cloud deck at 800 feet AGL
QC Flag:automated observation with no human augmentation
Text:KHSE 251551Z AUTO 35005KT 10SM OVC007 22/18 A3020 RMK AO2 SLP225 T02170183
Temperature: 21.7°C ( 71°F)
Dewpoint: 18.3°C ( 65°F) [RH = 81%]
Pressure (altimeter):30.20 inches Hg (1022.8 mb) [Sea level pressure: 1022.5 mb]
Winds:from the N (350 degrees) at 6 MPH (5 knots; 2.6 m/s)
Visibility:10 or more sm (16+ km)
Ceiling:700 feet AGL
Clouds: overcast cloud deck at 700 feet AGL
QC Flag:automated observation with no human augmentation
Text:KHSE 251451Z AUTO VRB06KT 10SM OVC007 21/18 A3020 RMK AO2 SLP227 T02110183 51008
Temperature: 21.1°C ( 70°F)
Dewpoint: 18.3°C ( 65°F) [RH = 84%]
Pressure (altimeter):30.20 inches Hg (1022.8 mb) [Sea level pressure: 1022.7 mb]
Winds:variable direction winds at 7 MPH (6 knots; 3.1 m/s)
Visibility:10 or more sm (16+ km)
Ceiling:700 feet AGL
Clouds: overcast cloud deck at 700 feet AGL
QC Flag:automated observation with no human augmentation
Text:KHSE 251351Z AUTO VRB05KT 10SM OVC006 21/18 A3020 RMK AO2 SLP226 T02060183
Temperature: 20.6°C ( 69°F)
Dewpoint: 18.3°C ( 65°F) [RH = 87%]
Pressure (altimeter):30.20 inches Hg (1022.8 mb) [Sea level pressure: 1022.6 mb]
Winds:variable direction winds at 6 MPH (5 knots; 2.6 m/s)
Visibility:10 or more sm (16+ km)
Ceiling:600 feet AGL
Clouds: overcast cloud deck at 600 feet AGL
QC Flag:automated observation with no human augmentation
Text:KHSE 251251Z AUTO VRB05KT 10SM OVC006 21/18 A3019 RMK AO2 SLP224 T02060183
Temperature: 20.6°C ( 69°F)
Dewpoint: 18.3°C ( 65°F) [RH = 87%]
Pressure (altimeter):30.19 inches Hg (1022.4 mb) [Sea level pressure: 1022.4 mb]
Winds:variable direction winds at 6 MPH (5 knots; 2.6 m/s)
Visibility:10 or more sm (16+ km)
Ceiling:600 feet AGL
Clouds: overcast cloud deck at 600 feet AGL
QC Flag:automated observation with no human augmentation
Text:KHSE 251151Z AUTO 35004KT 10SM OVC005 19/18 A3018 RMK AO2 SLP219 70158 T01940178 10211 20194 50009
Temperature: 19.4°C ( 67°F)
Dewpoint: 17.8°C ( 64°F) [RH = 90%]
Pressure (altimeter):30.18 inches Hg (1022.1 mb) [Sea level pressure: 1021.9 mb]
Winds:from the N (350 degrees) at 5 MPH (4 knots; 2.1 m/s)
Visibility:10 or more sm (16+ km)
Ceiling:500 feet AGL
Clouds: overcast cloud deck at 500 feet AGL
QC Flag:automated observation with no human augmentation
Text:KHSE 251147Z AUTO VRB05KT 10SM OVC005 19/18 A3018 RMK AO2
Temperature: 19.0°C ( 66°F)
Dewpoint: 18.0°C ( 64°F) [RH = 94%]
Pressure (altimeter):30.18 inches Hg (1022.1 mb)
Winds:variable direction winds at 6 MPH (5 knots; 2.6 m/s)
Visibility:10 or more sm (16+ km)
Ceiling:500 feet AGL
Clouds: overcast cloud deck at 500 feet AGL
QC Flag:automated observation with no human augmentation
Text:KHSE 251051Z AUTO VRB05KT 8SM OVC004 19/18 A3017 RMK AO2 SLP216 T01940178
Temperature: 19.4°C ( 67°F)
Dewpoint: 17.8°C ( 64°F) [RH = 90%]
Pressure (altimeter):30.17 inches Hg (1021.8 mb) [Sea level pressure: 1021.6 mb]
Winds:variable direction winds at 6 MPH (5 knots; 2.6 m/s)
Visibility: 8 sm ( 13 km)
Ceiling:400 feet AGL
Clouds: overcast cloud deck at 400 feet AGL
QC Flag:automated observation with no human augmentation
Text:KHSE 250951Z AUTO VRB06KT 7SM OVC004 20/18 A3015 RMK AO2 SLP210 T02000183
Temperature: 20.0°C ( 68°F)
Dewpoint: 18.3°C ( 65°F) [RH = 90%]
Pressure (altimeter):30.15 inches Hg (1021.1 mb) [Sea level pressure: 1021.0 mb]
Winds:variable direction winds at 7 MPH (6 knots; 3.1 m/s)
Visibility: 7 sm ( 11 km)
Ceiling:400 feet AGL
Clouds: overcast cloud deck at 400 feet AGL
QC Flag:automated observation with no human augmentation
Text:KHSE 250851Z AUTO 01007KT 8SM OVC004 20/18 A3013 RMK AO2 SLP202 T02000183 53003
Temperature: 20.0°C ( 68°F)
Dewpoint: 18.3°C ( 65°F) [RH = 90%]
Pressure (altimeter):30.13 inches Hg (1020.4 mb) [Sea level pressure: 1020.2 mb]
Winds:from the N (10 degrees) at 8 MPH (7 knots; 3.6 m/s)
Visibility: 8 sm ( 13 km)
Ceiling:400 feet AGL
Clouds: overcast cloud deck at 400 feet AGL
QC Flag:automated observation with no human augmentation
Text:KHSE 250817Z AUTO VRB05KT 6SM BR OVC003 20/19 A3012 RMK AO2 T02000189
Temperature: 20.0°C ( 68°F)
Dewpoint: 18.9°C ( 66°F) [RH = 93%]
Pressure (altimeter):30.12 inches Hg (1020.1 mb)
Winds:variable direction winds at 6 MPH (5 knots; 2.6 m/s)
Visibility: 6 sm ( 10 km)
Ceiling:300 feet AGL
Clouds: overcast cloud deck at 300 feet AGL
Weather:BR (mist)
QC Flag:automated observation with no human augmentation
Text:KHSE 250751Z AUTO VRB06KT 8SM OVC004 20/19 A3012 RMK AO2 SLP198 T02000189
Temperature: 20.0°C ( 68°F)
Dewpoint: 18.9°C ( 66°F) [RH = 93%]
Pressure (altimeter):30.12 inches Hg (1020.1 mb) [Sea level pressure: 1019.8 mb]
Winds:variable direction winds at 7 MPH (6 knots; 3.1 m/s)
Visibility: 8 sm ( 13 km)
Ceiling:400 feet AGL
Clouds: overcast cloud deck at 400 feet AGL
QC Flag:automated observation with no human augmentation
Text:KHSE 250707Z AUTO VRB05KT 6SM BR OVC004 21/19 A3012 RMK AO2 T02060194
Temperature: 20.6°C ( 69°F)
Dewpoint: 19.4°C ( 67°F) [RH = 93%]
Pressure (altimeter):30.12 inches Hg (1020.1 mb)
Winds:variable direction winds at 6 MPH (5 knots; 2.6 m/s)
Visibility: 6 sm ( 10 km)
Ceiling:400 feet AGL
Clouds: overcast cloud deck at 400 feet AGL
Weather:BR (mist)
QC Flag:automated observation with no human augmentation
Text:KHSE 250651Z AUTO VRB04KT 7SM OVC005 21/19 A3012 RMK AO2 SLP199 T02060194
Temperature: 20.6°C ( 69°F)
Dewpoint: 19.4°C ( 67°F) [RH = 93%]
Pressure (altimeter):30.12 inches Hg (1020.1 mb) [Sea level pressure: 1019.9 mb]
Winds:variable direction winds at 5 MPH (4 knots; 2.1 m/s)
Visibility: 7 sm ( 11 km)
Ceiling:500 feet AGL
Clouds: overcast cloud deck at 500 feet AGL
QC Flag:automated observation with no human augmentation
Text:KHSE 250551Z AUTO 01007KT 6SM BR OVC005 21/20 A3012 RMK AO2 LTG DSNT SE SLP199 60145 T02110200 10233 20211 50001
Temperature: 21.1°C ( 70°F)
Dewpoint: 20.0°C ( 68°F) [RH = 93%]
Pressure (altimeter):30.12 inches Hg (1020.1 mb) [Sea level pressure: 1019.9 mb]
Winds:from the N (10 degrees) at 8 MPH (7 knots; 3.6 m/s)
Visibility: 6 sm ( 10 km)
Ceiling:500 feet AGL
Clouds: overcast cloud deck at 500 feet AGL
Weather:BR (mist)
QC Flag:automated observation with no human augmentation
Text:KHSE 250451Z AUTO VRB04KT 5SM BR OVC005 22/21 A3012 RMK AO2 SLP201 T02220206 402830206
Temperature: 22.2°C ( 72°F)
Dewpoint: 20.6°C ( 69°F) [RH = 91%]
Pressure (altimeter):30.12 inches Hg (1020.1 mb) [Sea level pressure: 1020.1 mb]
Winds:variable direction winds at 5 MPH (4 knots; 2.1 m/s)
Visibility: 5 sm ( 8 km)
Ceiling:500 feet AGL
Clouds: overcast cloud deck at 500 feet AGL
Weather:BR (mist)
QC Flag:automated observation with no human augmentation
Text:KHSE 250446Z AUTO VRB05KT 5SM BR OVC005 22/21 A3012 RMK AO2 LTG DSNT S
Temperature: 22.0°C ( 72°F)
Dewpoint: 21.0°C ( 70°F) [RH = 94%]
Pressure (altimeter):30.12 inches Hg (1020.1 mb)
Winds:variable direction winds at 6 MPH (5 knots; 2.6 m/s)
Visibility: 5 sm ( 8 km)
Ceiling:500 feet AGL
Clouds: overcast cloud deck at 500 feet AGL
Weather:BR (mist)
QC Flag:automated observation with no human augmentation
Text:KHSE 250424Z AUTO VRB06KT 5SM BR OVC004 23/21 A3012 RMK AO2 T02280211
Temperature: 22.8°C ( 73°F)
Dewpoint: 21.1°C ( 70°F) [RH = 90%]
Pressure (altimeter):30.12 inches Hg (1020.1 mb)
Winds:variable direction winds at 7 MPH (6 knots; 3.1 m/s)
Visibility: 5 sm ( 8 km)
Ceiling:400 feet AGL
Clouds: overcast cloud deck at 400 feet AGL
Weather:BR (mist)
QC Flag:automated observation with no human augmentation
Text:KHSE 250413Z AUTO VRB04KT 6SM BR BKN006 OVC012 23/21 A3012 RMK AO2 CIG 004V008 T02280211
Temperature: 22.8°C ( 73°F)
Dewpoint: 21.1°C ( 70°F) [RH = 90%]
Pressure (altimeter):30.12 inches Hg (1020.1 mb)
Winds:variable direction winds at 5 MPH (4 knots; 2.1 m/s)
Visibility: 6 sm ( 10 km)
Ceiling:600 feet AGL
Clouds: broken clouds at 600 feet AGL, overcast cloud deck at 1200 feet AGL
Weather:BR (mist)
QC Flag:automated observation with no human augmentation
Text:KHSE 250358Z AUTO 36007KT 320V060 10SM FEW008 BKN013 OVC028 23/22 A3012 RMK AO2 T02330217
Temperature: 23.3°C ( 74°F)
Dewpoint: 21.7°C ( 71°F) [RH = 91%]
Pressure (altimeter):30.12 inches Hg (1020.1 mb)
Winds:from the N (360 degrees) at 8 MPH (7 knots; 3.6 m/s)
Visibility:10 or more sm (16+ km)
Ceiling:1300 feet AGL
Clouds: few clouds at 800 feet AGL, broken clouds at 1300 feet AGL, overcast cloud deck at 2800 feet AGL
QC Flag:automated observation with no human augmentation
Text:KHSE 250351Z AUTO VRB05KT 8SM FEW008 BKN021 OVC028 23/22 A3012 RMK AO2 RAE48 SLP198 P0036 T02330217
Temperature: 23.3°C ( 74°F)
Dewpoint: 21.7°C ( 71°F) [RH = 91%]
Pressure (altimeter):30.12 inches Hg (1020.1 mb) [Sea level pressure: 1019.8 mb]
Winds:variable direction winds at 6 MPH (5 knots; 2.6 m/s)
Visibility: 8 sm ( 13 km)
Ceiling:2100 feet AGL
Clouds: few clouds at 800 feet AGL, broken clouds at 2100 feet AGL, overcast cloud deck at 2800 feet AGL
QC Flag:automated observation with no human augmentation
Text:KHSE 250340Z AUTO 00000KT 4SM -RA BR BKN021 OVC028 23/22 A3012 RMK AO2 P0036 T02330217
Temperature: 23.3°C ( 74°F)
Dewpoint: 21.7°C ( 71°F) [RH = 91%]
Pressure (altimeter):30.12 inches Hg (1020.1 mb)
Winds:calm
Visibility: 4 sm ( 6 km)
Ceiling:2100 feet AGL
Clouds: broken clouds at 2100 feet AGL, overcast cloud deck at 2800 feet AGL
Weather:-RA BR (light rain, mist)
QC Flag:automated observation with no human augmentation
Text:KHSE 250333Z AUTO 21005KT 2 1/2SM RA BR SCT018 BKN023 OVC028 23/21 A3012 RMK AO2 VIS 1V5 P0034 T02280211
Temperature: 22.8°C ( 73°F)
Dewpoint: 21.1°C ( 70°F) [RH = 90%]
Pressure (altimeter):30.12 inches Hg (1020.1 mb)
Winds:from the SSW (210 degrees) at 6 MPH (5 knots; 2.6 m/s)
Visibility: 2.50 sm ( 4.02 km)
Ceiling:2300 feet AGL
Clouds: scattered clouds at 1800 feet AGL, broken clouds at 2300 feet AGL, overcast cloud deck at 2800 feet AGL
Weather:RA BR (moderate rain, mist)
QC Flag:automated observation with no human augmentation
Text:KHSE 250327Z AUTO 22007G15KT 1SM +RA BR BKN020 BKN025 OVC030 23/21 A3012 RMK AO2 P0027 T02280211
Temperature: 22.8°C ( 73°F)
Dewpoint: 21.1°C ( 70°F) [RH = 90%]
Pressure (altimeter):30.12 inches Hg (1020.1 mb)
Winds:from the SW (220 degrees) at 8 MPH (7 knots; 3.6 m/s) gusting to 17 MPH (15 knots; 7.7 m/s)
Visibility: 1.00 sm ( 1.61 km)
Ceiling:2000 feet AGL
Clouds: broken clouds at 2000 feet AGL, broken clouds at 2500 feet AGL, overcast cloud deck at 3000 feet AGL
Weather:+RA BR (heavy rain, mist)
QC Flag:automated observation with no human augmentation
Text:KHSE 250320Z AUTO 25008KT 1 3/4SM RA BR BKN020 OVC028 23/21 A3012 RMK AO2 VIS 3/4V5 P0017 T02280211
Temperature: 22.8°C ( 73°F)
Dewpoint: 21.1°C ( 70°F) [RH = 90%]
Pressure (altimeter):30.12 inches Hg (1020.1 mb)
Winds:from the WSW (250 degrees) at 9 MPH (8 knots; 4.1 m/s)
Visibility: 1.75 sm ( 2.82 km)
Ceiling:2000 feet AGL
Clouds: broken clouds at 2000 feet AGL, overcast cloud deck at 2800 feet AGL
Weather:RA BR (moderate rain, mist)
QC Flag:automated observation with no human augmentation
Text:KHSE 250310Z AUTO 23006KT 3SM -RA BR FEW012 BKN018 OVC023 23/22 A3012 RMK AO2 P0015 T02280217
Temperature: 22.8°C ( 73°F)
Dewpoint: 21.7°C ( 71°F) [RH = 94%]
Pressure (altimeter):30.12 inches Hg (1020.1 mb)
Winds:from the SW (230 degrees) at 7 MPH (6 knots; 3.1 m/s)
Visibility: 3 sm ( 5 km)
Ceiling:1800 feet AGL
Clouds: few clouds at 1200 feet AGL, broken clouds at 1800 feet AGL, overcast cloud deck at 2300 feet AGL
Weather:-RA BR (light rain, mist)
QC Flag:automated observation with no human augmentation
Text:KHSE 250308Z AUTO 22003KT 1 1/2SM -RA BR FEW012 BKN018 OVC023 23/22 A3012 RMK AO2 VIS 1/2V5 P0014 T02280217
Temperature: 22.8°C ( 73°F)
Dewpoint: 21.7°C ( 71°F) [RH = 94%]
Pressure (altimeter):30.12 inches Hg (1020.1 mb)
Winds:from the SW (220 degrees) at 3 MPH (3 knots; 1.5 m/s)
Visibility: 1.50 sm ( 2.41 km)
Ceiling:1800 feet AGL
Clouds: few clouds at 1200 feet AGL, broken clouds at 1800 feet AGL, overcast cloud deck at 2300 feet AGL
Weather:-RA BR (light rain, mist)
QC Flag:automated observation with no human augmentation
Text:KHSE 250302Z AUTO 00000KT 3/4SM +RA BR SCT011 OVC020 23/22 A3012 RMK AO2 P0003 T02280217
Temperature: 22.8°C ( 73°F)
Dewpoint: 21.7°C ( 71°F) [RH = 94%]
Pressure (altimeter):30.12 inches Hg (1020.1 mb)
Winds:calm
Visibility: 0.75 sm ( 1.21 km)
Ceiling:2000 feet AGL
Clouds: scattered clouds at 1100 feet AGL, overcast cloud deck at 2000 feet AGL
Weather:+RA BR (heavy rain, mist)
QC Flag:automated observation with no human augmentation
Text:KHSE 250258Z AUTO VRB03KT 1 1/2SM RA BR SCT011 BKN015 OVC022 23/22 A3012 RMK AO2 P0000 T02330222
Temperature: 23.3°C ( 74°F)
Dewpoint: 22.2°C ( 72°F) [RH = 94%]
Pressure (altimeter):30.12 inches Hg (1020.1 mb)
Winds:variable direction winds at 3 MPH (3 knots; 1.5 m/s)
Visibility: 1.50 sm ( 2.41 km)
Ceiling:1500 feet AGL
Clouds: scattered clouds at 1100 feet AGL, broken clouds at 1500 feet AGL, overcast cloud deck at 2200 feet AGL
Weather:RA BR (moderate rain, mist)
QC Flag:automated observation with no human augmentation
Text:KHSE 250251Z AUTO VRB03KT 6SM -RA BR BKN011 OVC020 23/22 A3012 RMK AO2 SLP200 P0104 60109 T02330222 53013
Temperature: 23.3°C ( 74°F)
Dewpoint: 22.2°C ( 72°F) [RH = 94%]
Pressure (altimeter):30.12 inches Hg (1020.1 mb) [Sea level pressure: 1020.0 mb]
Winds:variable direction winds at 3 MPH (3 knots; 1.5 m/s)
Visibility: 6 sm ( 10 km)
Ceiling:1100 feet AGL
Clouds: broken clouds at 1100 feet AGL, overcast cloud deck at 2000 feet AGL
Weather:-RA BR (light rain, mist)
QC Flag:automated observation with no human augmentation
Text:KHSE 250241Z AUTO 22005KT 3SM -RA BR BKN013 OVC022 23/22 A3012 RMK AO2 P0103 T02330222
Temperature: 23.3°C ( 74°F)
Dewpoint: 22.2°C ( 72°F) [RH = 94%]
Pressure (altimeter):30.12 inches Hg (1020.1 mb)
Winds:from the SW (220 degrees) at 6 MPH (5 knots; 2.6 m/s)
Visibility: 3 sm ( 5 km)
Ceiling:1300 feet AGL
Clouds: broken clouds at 1300 feet AGL, overcast cloud deck at 2200 feet AGL
Weather:-RA BR (light rain, mist)
QC Flag:automated observation with no human augmentation
Text:KHSE 250227Z AUTO 00000KT 2 1/2SM -RA BR OVC016 23/22 A3012 RMK AO2 P0094 T02330222
Temperature: 23.3°C ( 74°F)
Dewpoint: 22.2°C ( 72°F) [RH = 94%]
Pressure (altimeter):30.12 inches Hg (1020.1 mb)
Winds:calm
Visibility: 2.50 sm ( 4.02 km)
Ceiling:1600 feet AGL
Clouds: overcast cloud deck at 1600 feet AGL
Weather:-RA BR (light rain, mist)
QC Flag:automated observation with no human augmentation
Text:KHSE 250223Z AUTO 04004KT 1SM +RA BR FEW007 SCT013 OVC018 23/22 A3012 RMK AO2 P0092 T02330217
Temperature: 23.3°C ( 74°F)
Dewpoint: 21.7°C ( 71°F) [RH = 91%]
Pressure (altimeter):30.12 inches Hg (1020.1 mb)
Winds:from the NE (40 degrees) at 5 MPH (4 knots; 2.1 m/s)
Visibility: 1.00 sm ( 1.61 km)
Ceiling:1800 feet AGL
Clouds: few clouds at 700 feet AGL, scattered clouds at 1300 feet AGL, overcast cloud deck at 1800 feet AGL
Weather:+RA BR (heavy rain, mist)
QC Flag:automated observation with no human augmentation
Text:KHSE 250215Z AUTO 1/4SM +RA FG FEW007 SCT011 OVC016 23/22 A3012 RMK AO2 P0059 T02280217
Temperature: 22.8°C ( 73°F)
Dewpoint: 21.7°C ( 71°F) [RH = 94%]
Pressure (altimeter):30.12 inches Hg (1020.1 mb)
Visibility: 0.25 sm ( 0.40 km)
Ceiling:1600 feet AGL
Clouds: few clouds at 700 feet AGL, scattered clouds at 1100 feet AGL, overcast cloud deck at 1600 feet AGL
Weather:+RA FG (heavy rain, fog)
QC Flag:automated observation with no human augmentation
Text:KHSE 250204Z AUTO VRB03KT 1/2SM +RA FG SCT007 BKN012 OVC019 23/22 A3013 RMK AO2 P0012 T02330217
Temperature: 23.3°C ( 74°F)
Dewpoint: 21.7°C ( 71°F) [RH = 91%]
Pressure (altimeter):30.13 inches Hg (1020.4 mb)
Winds:variable direction winds at 3 MPH (3 knots; 1.5 m/s)
Visibility: 0.50 sm ( 0.80 km)
Ceiling:1200 feet AGL
Clouds: scattered clouds at 700 feet AGL, broken clouds at 1200 feet AGL, overcast cloud deck at 1900 feet AGL
Weather:+RA FG (heavy rain, fog)
QC Flag:automated observation with no human augmentation
Text:KHSE 250158Z AUTO VRB04KT 1 1/4SM +RA BR BKN007 BKN013 OVC023 23/22 A3012 RMK AO2 VIS 3/4V3 P0006 T02330217
Temperature: 23.3°C ( 74°F)
Dewpoint: 21.7°C ( 71°F) [RH = 91%]
Pressure (altimeter):30.12 inches Hg (1020.1 mb)
Winds:variable direction winds at 5 MPH (4 knots; 2.1 m/s)
Visibility: 1.25 sm ( 2.01 km)
Ceiling:700 feet AGL
Clouds: broken clouds at 700 feet AGL, broken clouds at 1300 feet AGL, overcast cloud deck at 2300 feet AGL
Weather:+RA BR (heavy rain, mist)
QC Flag:automated observation with no human augmentation
Text:KHSE 250151Z AUTO VRB05KT 2SM +RA BR BKN007 BKN016 OVC060 23/21 A3011 RMK AO2 RAE05B39 CIG 006V013 SLP197 P0004 T02280211
Temperature: 22.8°C ( 73°F)
Dewpoint: 21.1°C ( 70°F) [RH = 90%]
Pressure (altimeter):30.11 inches Hg (1019.7 mb) [Sea level pressure: 1019.7 mb]
Winds:variable direction winds at 6 MPH (5 knots; 2.6 m/s)
Visibility: 2.00 sm ( 3.22 km)
Ceiling:700 feet AGL
Clouds: broken clouds at 700 feet AGL, broken clouds at 1600 feet AGL, overcast cloud deck at 6000 feet AGL
Weather:+RA BR (heavy rain, mist)
QC Flag:automated observation with no human augmentation
Text:KHSE 250145Z AUTO VRB03KT 3SM RA BR SCT007 BKN014 OVC060 23/21 A3012 RMK AO2 RAE05B39 P0001
Temperature: 23.0°C ( 73°F)
Dewpoint: 21.0°C ( 70°F) [RH = 89%]
Pressure (altimeter):30.12 inches Hg (1020.1 mb)
Winds:variable direction winds at 3 MPH (3 knots; 1.5 m/s)
Visibility: 3 sm ( 5 km)
Ceiling:1400 feet AGL
Clouds: scattered clouds at 700 feet AGL, broken clouds at 1400 feet AGL, overcast cloud deck at 6000 feet AGL
Weather:RA BR (moderate rain, mist)
QC Flag:automated observation with no human augmentation
Text:KHSE 250141Z AUTO VRB05KT 5SM RA BR SCT013 BKN027 OVC090 23/22 A3011 RMK AO2 RAE05B39 P0001 T02330217
Temperature: 23.3°C ( 74°F)
Dewpoint: 21.7°C ( 71°F) [RH = 91%]
Pressure (altimeter):30.11 inches Hg (1019.7 mb)
Winds:variable direction winds at 6 MPH (5 knots; 2.6 m/s)
Visibility: 5 sm ( 8 km)
Ceiling:2700 feet AGL
Clouds: scattered clouds at 1300 feet AGL, broken clouds at 2700 feet AGL, overcast cloud deck at 9000 feet AGL
Weather:RA BR (moderate rain, mist)
QC Flag:automated observation with no human augmentation
Text:KHSE 250051Z AUTO 12005KT 5SM -RA BR FEW018 BKN085 OVC110 23/22 A3009 RMK AO2 RAE2359B50 SLP190 P0001 T02330217
Temperature: 23.3°C ( 74°F)
Dewpoint: 21.7°C ( 71°F) [RH = 91%]
Pressure (altimeter):30.09 inches Hg (1019.0 mb) [Sea level pressure: 1019.0 mb]
Winds:from the ESE (120 degrees) at 6 MPH (5 knots; 2.6 m/s)
Visibility: 5 sm ( 8 km)
Ceiling:8500 feet AGL
Clouds: few clouds at 1800 feet AGL, broken clouds at 8500 feet AGL, overcast cloud deck at 11000 feet AGL
Weather:-RA BR (light rain, mist)
QC Flag:automated observation with no human augmentation
Text:KHSE 242351Z AUTO 09003KT 4SM -RA BR FEW075 BKN090 OVC100 23/22 A3009 RMK AO2 SLP188 P0013 60013 T02280217 10278 20228 50006
Temperature: 22.8°C ( 73°F)
Dewpoint: 21.7°C ( 71°F) [RH = 94%]
Pressure (altimeter):30.09 inches Hg (1019.0 mb) [Sea level pressure: 1018.8 mb]
Winds:from the E (90 degrees) at 3 MPH (3 knots; 1.5 m/s)
Visibility: 4 sm ( 6 km)
Ceiling:9000 feet AGL
Clouds: few clouds at 7500 feet AGL, broken clouds at 9000 feet AGL, overcast cloud deck at 10000 feet AGL
Weather:-RA BR (light rain, mist)
QC Flag:automated observation with no human augmentation
Text:KHSE 242331Z AUTO 36003KT 2 1/2SM RA BR FEW014 BKN090 OVC100 23/21 A3009 RMK AO2 P0009 T02280211
Temperature: 22.8°C ( 73°F)
Dewpoint: 21.1°C ( 70°F) [RH = 90%]
Pressure (altimeter):30.09 inches Hg (1019.0 mb)
Winds:from the N (360 degrees) at 3 MPH (3 knots; 1.5 m/s)
Visibility: 2.50 sm ( 4.02 km)
Ceiling:9000 feet AGL
Clouds: few clouds at 1400 feet AGL, broken clouds at 9000 feet AGL, overcast cloud deck at 10000 feet AGL
Weather:RA BR (moderate rain, mist)
QC Flag:automated observation with no human augmentation
Text:KHSE 242320Z AUTO VRB04KT 1 3/4SM RA BR FEW014 BKN070 OVC110 23/21 A3010 RMK AO2 P0006 T02330211
Temperature: 23.3°C ( 74°F)
Dewpoint: 21.1°C ( 70°F) [RH = 87%]
Pressure (altimeter):30.10 inches Hg (1019.4 mb)
Winds:variable direction winds at 5 MPH (4 knots; 2.1 m/s)
Visibility: 1.75 sm ( 2.82 km)
Ceiling:7000 feet AGL
Clouds: few clouds at 1400 feet AGL, broken clouds at 7000 feet AGL, overcast cloud deck at 11000 feet AGL
Weather:RA BR (moderate rain, mist)
QC Flag:automated observation with no human augmentation
Text:KHSE 242308Z AUTO 33004KT 2 1/2SM RA BR FEW015 SCT060 BKN080 23/21 A3010 RMK AO2 P0002 T02330211
Temperature: 23.3°C ( 74°F)
Dewpoint: 21.1°C ( 70°F) [RH = 87%]
Pressure (altimeter):30.10 inches Hg (1019.4 mb)
Winds:from the NNW (330 degrees) at 5 MPH (4 knots; 2.1 m/s)
Visibility: 2.50 sm ( 4.02 km)
Ceiling:8000 feet AGL
Clouds: few clouds at 1500 feet AGL, scattered clouds at 6000 feet AGL, broken clouds at 8000 feet AGL
Weather:RA BR (moderate rain, mist)
QC Flag:automated observation with no human augmentation
Text:KHSE 242251Z AUTO 32005KT 10SM -RA SCT017 BKN046 BKN090 24/21 A3009 RMK AO2 RAB46 SLP189 P0000 T02390206
Temperature: 23.9°C ( 75°F)
Dewpoint: 20.6°C ( 69°F) [RH = 82%]
Pressure (altimeter):30.09 inches Hg (1019.0 mb) [Sea level pressure: 1018.9 mb]
Winds:from the NW (320 degrees) at 6 MPH (5 knots; 2.6 m/s)
Visibility:10 or more sm (16+ km)
Ceiling:4600 feet AGL
Clouds: scattered clouds at 1700 feet AGL, broken clouds at 4600 feet AGL, broken clouds at 9000 feet AGL
Weather:-RA (light rain)
QC Flag:automated observation with no human augmentation
Text:KHSE 242230Z AUTO 00000KT 10SM FEW010 BKN020 OVC075 24/21 A3008 RMK AO2 LTG DSNT NE AND W T02390206
Temperature: 23.9°C ( 75°F)
Dewpoint: 20.6°C ( 69°F) [RH = 82%]
Pressure (altimeter):30.08 inches Hg (1018.7 mb)
Winds:calm
Visibility:10 or more sm (16+ km)
Ceiling:2000 feet AGL
Clouds: few clouds at 1000 feet AGL, broken clouds at 2000 feet AGL, overcast cloud deck at 7500 feet AGL
QC Flag:automated observation with no human augmentation
Text:KHSE 242151Z AUTO 22006KT 10SM FEW070 OVC100 26/22 A3008 RMK AO2 LTG DSNT N AND NW SLP186 T02560222
Temperature: 25.6°C ( 78°F)
Dewpoint: 22.2°C ( 72°F) [RH = 82%]
Pressure (altimeter):30.08 inches Hg (1018.7 mb) [Sea level pressure: 1018.6 mb]
Winds:from the SW (220 degrees) at 7 MPH (6 knots; 3.1 m/s)
Visibility:10 or more sm (16+ km)
Ceiling:10000 feet AGL
Clouds: few clouds at 7000 feet AGL, overcast cloud deck at 10000 feet AGL
QC Flag:automated observation with no human augmentation
Text:KHSE 242051Z AUTO 20009KT 10SM SCT120 26/22 A3007 RMK AO2 LTG DSNT N AND NW SLP182 T02610222 55009
Temperature: 26.1°C ( 79°F)
Dewpoint: 22.2°C ( 72°F) [RH = 79%]
Pressure (altimeter):30.07 inches Hg (1018.4 mb) [Sea level pressure: 1018.2 mb]
Winds:from the SSW (200 degrees) at 10 MPH (9 knots; 4.6 m/s)
Visibility:10 or more sm (16+ km)
Ceiling:at least 12,000 feet AGL
Clouds: scattered clouds at 12000 feet AGL
QC Flag:automated observation with no human augmentation
Text:KHSE 241951Z AUTO 19008KT 10SM CLR 27/22 A3006 RMK AO2 LTG DSNT NW SLP178 T02670222
Temperature: 26.7°C ( 80°F)
Dewpoint: 22.2°C ( 72°F) [RH = 76%]
Pressure (altimeter):30.06 inches Hg (1018.0 mb) [Sea level pressure: 1017.8 mb]
Winds:from the S (190 degrees) at 9 MPH (8 knots; 4.1 m/s)
Visibility:10 or more sm (16+ km)
Ceiling:at least 12,000 feet AGL
Clouds:sky clear below 12,000 feet AGL
QC Flag:automated observation with no human augmentation
Text:KHSE 241851Z AUTO 19010KT 10SM CLR 27/23 A3008 RMK AO2 SLP185 T02670228
Temperature: 26.7°C ( 80°F)
Dewpoint: 22.8°C ( 73°F) [RH = 79%]
Pressure (altimeter):30.08 inches Hg (1018.7 mb) [Sea level pressure: 1018.5 mb]
Winds:from the S (190 degrees) at 12 MPH (10 knots; 5.1 m/s)
Visibility:10 or more sm (16+ km)
Ceiling:at least 12,000 feet AGL
Clouds:sky clear below 12,000 feet AGL
QC Flag:automated observation with no human augmentation